createdAt,value
2018-03-14T00:00:25.761Z,165.03
2018-03-14T00:02:54.985Z,108.43
2018-03-14T00:05:25.262Z,68.70
2018-03-14T00:07:55.442Z,83.43
2018-03-14T00:10:26.347Z,81.10
2018-03-14T00:13:22.181Z,73.73
2018-03-14T00:15:58.449Z,98.20
2018-03-14T00:18:28.155Z,73.60
2018-03-14T00:20:59.886Z,88.37
2018-03-14T00:23:30.577Z,67.43
2018-03-14T00:26:04.101Z,80.77
2018-03-14T00:31:39.930Z,64.27
2018-03-14T00:34:22.444Z,58.47
2018-03-14T00:36:56.348Z,61.60
2018-03-14T00:39:29.538Z,51.07
2018-03-14T00:42:04.161Z,71.57
2018-03-14T00:44:40.187Z,58.17
2018-03-14T00:47:15.828Z,57.47
2018-03-14T00:49:46.929Z,66.37
2018-03-14T00:52:17.145Z,59.27
2018-03-14T00:54:48.894Z,56.97
2018-03-14T00:57:21.035Z,70.57
2018-03-14T00:59:52.974Z,68.93
2018-03-14T01:02:23.696Z,68.90
2018-03-14T01:07:55.129Z,61.37
2018-03-14T01:10:26.781Z,66.80
2018-03-14T01:12:58.646Z,70.27
2018-03-14T01:15:28.465Z,61.23
2018-03-14T01:17:59.130Z,58.50
2018-03-14T01:20:29.665Z,57.23
2018-03-14T01:23:00.742Z,54.83
2018-03-14T01:25:31.068Z,53.90
2018-03-14T01:28:01.073Z,47.90
2018-03-14T01:30:31.107Z,54.53
2018-03-14T01:33:01.267Z,59.23
2018-03-14T01:35:32.167Z,64.23
2018-03-14T01:38:02.940Z,59.63
2018-03-14T01:40:33.409Z,62.50
2018-03-14T01:43:03.827Z,57.00
2018-03-14T01:45:33.897Z,52.90
2018-03-14T01:48:03.759Z,64.27
2018-03-14T01:50:33.310Z,58.67
2018-03-14T01:53:12.016Z,62.53
2018-03-14T01:55:41.733Z,51.93
2018-03-14T01:58:11.193Z,58.87
2018-03-14T02:00:42.299Z,53.20
2018-03-14T02:03:11.873Z,51.73
2018-03-14T02:05:41.498Z,230.23
2018-03-14T02:08:11.603Z,73.30
2018-03-14T02:10:41.100Z,69.23
2018-03-14T02:13:10.508Z,69.47
2018-03-14T02:15:42.402Z,47.33
2018-03-14T02:18:11.665Z,64.87
2018-03-14T02:20:41.064Z,56.23
2018-03-14T02:23:10.527Z,64.37
2018-03-14T02:25:40.399Z,59.50
2018-03-14T02:28:10.209Z,61.53
2018-03-14T02:30:39.727Z,54.63
2018-03-14T02:33:09.095Z,59.37
2018-03-14T02:35:39.400Z,53.97
2018-03-14T02:38:08.827Z,61.67
2018-03-14T02:40:39.483Z,56.30
2018-03-14T02:43:10.622Z,50.57
2018-03-14T02:45:42.485Z,58.43
2018-03-14T02:48:19.037Z,55.13
2018-03-14T02:50:53.743Z,57.93
2018-03-14T02:53:25.897Z,61.93
2018-03-14T02:56:04.430Z,55.13
2018-03-14T02:58:34.119Z,55.17
2018-03-14T03:01:03.716Z,58.73
2018-03-14T03:03:33.245Z,71.20
2018-03-14T03:06:03.495Z,51.73
2018-03-14T03:08:32.861Z,41.57
2018-03-14T03:11:02.076Z,54.00
2018-03-14T03:13:31.675Z,53.50
2018-03-14T03:16:03.436Z,55.80
2018-03-14T03:18:33.332Z,53.87
2018-03-14T03:21:03.087Z,54.60
2018-03-14T03:23:33.360Z,61.33
2018-03-14T03:26:03.237Z,69.90
2018-03-14T03:28:32.916Z,60.77
2018-03-14T03:31:03.543Z,63.90
2018-03-14T03:33:33.069Z,56.07
2018-03-14T03:36:02.527Z,62.13
2018-03-14T03:38:32.326Z,62.53
2018-03-14T03:41:02.442Z,60.60
2018-03-14T03:43:32.206Z,59.10
2018-03-14T03:46:02.766Z,60.10
2018-03-14T03:48:32.154Z,63.80
2018-03-14T03:51:02.173Z,67.53
2018-03-14T03:53:31.337Z,57.77
2018-03-14T03:56:00.806Z,64.50
2018-03-14T03:58:31.294Z,67.80
2018-03-14T04:01:01.167Z,65.43
2018-03-14T04:03:30.548Z,64.63
2018-03-14T04:06:00.129Z,72.90
2018-03-14T04:08:29.665Z,76.43
2018-03-14T04:10:59.794Z,74.80
2018-03-14T04:13:30.594Z,72.47
2018-03-14T04:15:59.789Z,80.50
2018-03-14T04:18:29.067Z,81.93
2018-03-14T04:20:58.574Z,81.40
2018-03-14T04:23:27.741Z,86.33
2018-03-14T04:25:57.177Z,86.83
2018-03-14T04:28:26.959Z,85.03
2018-03-14T04:30:56.150Z,78.67
2018-03-14T04:33:25.719Z,83.00
2018-03-14T04:35:55.239Z,74.53
2018-03-14T04:38:25.395Z,93.23
2018-03-14T04:40:54.768Z,88.00
2018-03-14T04:43:24.499Z,82.30
2018-03-14T04:45:54.226Z,82.50
2018-03-14T04:48:24.626Z,103.90
2018-03-14T04:50:54.054Z,88.73
2018-03-14T04:53:23.564Z,80.70
2018-03-14T04:55:54.277Z,102.93
2018-03-14T04:58:23.837Z,98.80
2018-03-14T05:00:53.718Z,91.93
2018-03-14T05:03:23.735Z,94.53
2018-03-14T05:05:54.037Z,94.43
2018-03-14T05:08:23.819Z,116.83
2018-03-14T05:10:53.814Z,117.10
2018-03-14T05:13:23.365Z,101.53
2018-03-14T05:15:53.397Z,106.03
2018-03-14T05:18:23.221Z,102.80
2018-03-14T05:20:53.717Z,110.10
2018-03-14T05:23:23.239Z,113.37
2018-03-14T05:25:54.352Z,106.63
2018-03-14T05:28:23.642Z,138.97
2018-03-14T05:30:53.890Z,119.30
2018-03-14T05:33:23.848Z,130.40
2018-03-14T05:35:54.049Z,109.90
2018-03-14T05:38:23.559Z,113.80
2018-03-14T05:40:53.455Z,113.57
2018-03-14T05:43:23.168Z,120.30
2018-03-14T05:45:52.589Z,132.60
2018-03-14T05:48:22.194Z,124.87
2018-03-14T05:50:52.758Z,148.90
2018-03-14T05:53:23.533Z,136.43
2018-03-14T05:55:53.848Z,132.77
2018-03-14T05:58:23.185Z,149.83
2018-03-14T06:00:54.160Z,143.20
2018-03-14T06:03:24.411Z,129.13
2018-03-14T06:05:53.991Z,144.93
2018-03-14T06:08:24.168Z,149.13
2018-03-14T06:10:54.282Z,138.90
2018-03-14T06:13:24.696Z,145.77
2018-03-14T06:15:55.033Z,139.43
2018-03-14T06:18:24.387Z,144.37
2018-03-14T06:20:54.645Z,174.90
2018-03-14T06:23:24.564Z,146.73
2018-03-14T06:25:55.425Z,145.03
2018-03-14T06:28:25.483Z,160.00
2018-03-14T06:30:55.996Z,146.00
2018-03-14T06:33:26.776Z,140.70
2018-03-14T06:35:56.139Z,135.27
2018-03-14T06:38:25.813Z,138.60
2018-03-14T06:40:56.252Z,156.63
2018-03-14T06:43:27.243Z,155.07
2018-03-14T06:46:05.152Z,142.80
2018-03-14T06:48:35.480Z,150.87
2018-03-14T06:51:06.581Z,142.30
2018-03-14T06:53:36.264Z,155.30
2018-03-14T06:56:06.571Z,143.33
2018-03-14T06:58:45.394Z,149.77
2018-03-14T07:01:33.536Z,166.23
2018-03-14T07:04:39.622Z,151.03
2018-03-14T07:07:09.318Z,142.70
2018-03-14T07:09:40.723Z,144.07
2018-03-14T07:12:10.071Z,140.10
2018-03-14T07:14:40.103Z,137.90
2018-03-14T07:17:09.818Z,134.33
2018-03-14T07:19:39.889Z,155.60
2018-03-14T07:22:11.130Z,152.43
2018-03-14T07:24:41.370Z,128.13
2018-03-14T07:27:11.178Z,134.63
2018-03-14T07:29:41.277Z,123.37
2018-03-14T07:32:10.939Z,110.13
2018-03-14T07:34:41.522Z,118.03
2018-03-14T07:37:12.589Z,100.33
2018-03-14T07:39:42.529Z,134.67
2018-03-14T07:42:12.328Z,121.37
2018-03-14T07:44:42.123Z,127.60
2018-03-14T07:47:16.233Z,117.47
2018-03-14T07:50:01.011Z,122.57
2018-03-14T07:52:46.297Z,117.17
2018-03-14T07:55:19.053Z,126.87
2018-03-14T07:57:48.970Z,131.70
2018-03-14T08:00:22.552Z,112.10
2018-03-14T08:02:52.552Z,115.10
2018-03-14T08:05:22.598Z,108.70
2018-03-14T08:07:53.206Z,112.93
2018-03-14T08:10:24.880Z,109.53
2018-03-14T08:12:56.050Z,130.33
2018-03-14T08:15:25.968Z,105.97
2018-03-14T08:17:55.591Z,110.07
2018-03-14T08:20:25.646Z,103.27
2018-03-14T08:22:56.095Z,96.57
2018-03-14T08:25:26.105Z,103.17
2018-03-14T08:27:56.828Z,92.87
2018-03-14T08:30:28.953Z,90.33
2018-03-14T08:33:00.338Z,91.37
2018-03-14T08:35:31.943Z,78.70
2018-03-14T08:38:02.403Z,80.23
2018-03-14T08:40:32.907Z,82.17
2018-03-14T08:43:04.029Z,77.47
2018-03-14T08:45:34.362Z,77.90
2018-03-14T08:48:05.779Z,76.63
2018-03-14T08:50:36.073Z,93.47
2018-03-14T08:53:06.754Z,78.20
2018-03-14T08:55:44.538Z,85.30
2018-03-14T08:58:30.524Z,85.20
2018-03-14T09:01:01.563Z,81.33
2018-03-14T09:03:33.679Z,67.47
2018-03-14T09:06:04.001Z,68.93
2018-03-14T09:08:34.104Z,72.00
2018-03-14T09:11:04.289Z,74.10
2018-03-14T09:13:35.878Z,68.50
2018-03-14T09:16:06.038Z,85.73
2018-03-14T09:18:36.954Z,85.17
2018-03-14T09:21:07.434Z,68.90
2018-03-14T09:23:39.183Z,86.90
2018-03-14T09:26:10.511Z,57.87
2018-03-14T09:28:40.462Z,66.20
2018-03-14T09:31:10.672Z,61.43
2018-03-14T09:33:40.738Z,88.77
2018-03-14T09:36:10.805Z,47.23
2018-03-14T09:38:41.558Z,51.73
2018-03-14T09:41:11.716Z,48.47
2018-03-14T09:43:44.862Z,69.63
2018-03-14T09:46:17.898Z,58.43
2018-03-14T09:48:51.422Z,45.60
2018-03-14T09:51:22.406Z,39.40
2018-03-14T09:53:53.420Z,47.00
2018-03-14T09:56:23.693Z,40.50
2018-03-14T09:58:53.784Z,83.60
2018-03-14T10:01:23.952Z,37.83
2018-03-14T10:03:55.429Z,35.43
2018-03-14T10:06:24.918Z,43.87
2018-03-14T10:08:54.559Z,35.87
2018-03-14T10:11:24.154Z,49.37
2018-03-14T10:13:56.117Z,31.80
2018-03-14T10:16:25.370Z,44.83
2018-03-14T10:18:55.268Z,46.53
2018-03-14T10:21:25.007Z,48.33
2018-03-14T10:23:54.452Z,34.07
2018-03-14T10:26:25.480Z,34.40
2018-03-14T10:28:55.186Z,40.83
2018-03-14T10:31:24.737Z,37.30
2018-03-14T10:33:56.153Z,30.83
2018-03-14T10:36:26.586Z,30.70
2018-03-14T10:38:56.889Z,30.93
2018-03-14T10:41:26.341Z,30.80
2018-03-14T10:43:56.358Z,30.33
2018-03-14T10:46:25.844Z,34.90
2018-03-14T10:48:55.683Z,23.67
2018-03-14T10:51:25.335Z,42.73
2018-03-14T10:53:55.092Z,45.07
2018-03-14T10:56:24.914Z,36.73
2018-03-14T10:58:56.072Z,34.40
2018-03-14T11:01:30.416Z,66.47
2018-03-14T11:04:00.100Z,30.30
2018-03-14T11:06:31.306Z,40.53
2018-03-14T11:09:03.716Z,25.93
2018-03-14T11:11:34.793Z,32.97
2018-03-14T11:14:06.727Z,29.50
2018-03-14T11:16:38.939Z,22.40
2018-03-14T11:19:10.883Z,26.50
2018-03-14T11:21:41.879Z,26.80
2018-03-14T11:24:12.197Z,28.07
2018-03-14T11:26:55.627Z,26.90
2018-03-14T11:29:26.870Z,22.77
2018-03-14T11:32:07.882Z,24.23
2018-03-14T11:34:45.813Z,24.53
2018-03-14T11:37:15.989Z,29.87
2018-03-14T11:39:47.541Z,26.03
2018-03-14T11:42:18.879Z,31.53
2018-03-14T11:44:56.594Z,24.73
2018-03-14T11:47:27.020Z,45.37
2018-03-14T11:49:57.822Z,33.13
2018-03-14T11:52:28.772Z,33.27
2018-03-14T11:55:03.978Z,27.70
2018-03-14T11:57:57.718Z,27.07
2018-03-14T12:00:35.494Z,20.80
2018-03-14T12:03:05.816Z,20.03
2018-03-14T12:05:36.618Z,25.63
2018-03-14T12:08:07.445Z,43.63
2018-03-14T12:10:38.446Z,21.63
2018-03-14T12:13:08.601Z,57.57
2018-03-14T12:15:40.063Z,26.37
2018-03-14T12:18:13.168Z,31.50
2018-03-14T12:20:44.356Z,29.43
2018-03-14T12:23:16.411Z,22.40
2018-03-14T12:25:47.101Z,44.47
2018-03-14T12:28:18.011Z,27.30
2018-03-14T12:30:54.010Z,39.67
2018-03-14T12:33:38.474Z,26.10
2018-03-14T12:36:21.359Z,23.40
2018-03-14T12:38:56.745Z,21.73
2018-03-14T12:44:06.576Z,57.53
2018-03-14T12:46:36.700Z,17.20
2018-03-14T12:49:06.655Z,25.53
2018-03-14T12:51:39.837Z,19.87
2018-03-14T12:54:17.843Z,31.07
2018-03-14T12:57:07.021Z,30.63
2018-03-14T12:59:37.566Z,24.10
2018-03-14T13:02:12.316Z,23.33
2018-03-14T13:04:43.097Z,40.53
2018-03-14T13:07:13.630Z,32.03
2018-03-14T13:09:44.136Z,29.23
2018-03-14T13:12:14.336Z,23.50
2018-03-14T13:14:44.964Z,29.50
2018-03-14T13:17:17.224Z,29.43
2018-03-14T13:19:47.586Z,26.17
2018-03-14T13:22:25.636Z,28.43
2018-03-14T13:24:55.897Z,25.67
2018-03-14T13:27:36.623Z,29.27
2018-03-14T13:30:13.542Z,30.83
2018-03-14T13:32:45.899Z,24.07
2018-03-14T13:35:19.944Z,25.50
2018-03-14T13:37:51.792Z,25.47
2018-03-14T13:40:21.690Z,26.60
2018-03-14T13:42:53.340Z,25.03
2018-03-14T13:45:29.513Z,33.57
2018-03-14T13:48:10.603Z,45.63
2018-03-14T13:50:43.817Z,31.63
2018-03-14T13:53:15.540Z,48.10
2018-03-14T13:55:45.661Z,21.47
2018-03-14T13:58:15.596Z,21.33
2018-03-14T14:00:46.134Z,29.67
2018-03-14T14:03:17.078Z,23.10
2018-03-14T14:05:49.036Z,19.47
2018-03-14T14:08:19.448Z,21.03
2018-03-14T14:10:50.408Z,17.47
2018-03-14T14:13:21.527Z,20.63
2018-03-14T14:15:55.450Z,16.90
2018-03-14T14:18:26.299Z,16.27
2018-03-14T14:20:59.215Z,21.57
2018-03-14T14:23:30.474Z,23.97
2018-03-14T14:26:01.818Z,21.90
2018-03-14T14:28:33.072Z,22.30
2018-03-14T14:31:04.671Z,21.23
2018-03-14T14:33:35.158Z,68.90
2018-03-14T14:36:05.853Z,23.40
2018-03-14T14:38:38.161Z,32.70
2018-03-14T14:41:09.832Z,20.70
2018-03-14T14:43:39.853Z,20.50
2018-03-14T14:46:10.984Z,35.83
2018-03-14T14:48:41.848Z,23.50
2018-03-14T14:51:12.325Z,21.20
2018-03-14T14:53:44.886Z,22.73
2018-03-14T14:56:19.534Z,36.90
2018-03-14T14:58:51.101Z,26.30
2018-03-14T15:01:22.218Z,29.83
2018-03-14T15:03:56.790Z,20.90
2018-03-14T15:06:28.388Z,23.47
2018-03-14T15:08:58.797Z,20.70
2018-03-14T15:11:30.867Z,26.63
2018-03-14T15:14:00.952Z,21.20
2018-03-14T15:16:45.733Z,18.57
2018-03-14T15:19:33.913Z,20.80
2018-03-14T15:22:06.115Z,32.87
2018-03-14T15:24:37.766Z,24.10
2018-03-14T15:27:10.482Z,21.83
2018-03-14T15:30:02.308Z,22.07
2018-03-14T15:33:06.581Z,47.80
2018-03-14T15:35:37.735Z,36.27
2018-03-14T15:38:09.854Z,27.63
2018-03-14T15:40:41.325Z,25.93
2018-03-14T15:43:13.616Z,18.63
2018-03-14T15:45:44.189Z,24.43
2018-03-14T15:48:15.739Z,17.97
2018-03-14T15:50:49.295Z,17.80
2018-03-14T15:53:20.756Z,17.80
2018-03-14T15:55:58.144Z,28.17
2018-03-14T15:58:29.892Z,18.63
2018-03-14T16:01:00.568Z,28.77
2018-03-14T16:03:31.670Z,26.00
2018-03-14T16:06:01.282Z,24.83
2018-03-14T16:08:31.468Z,20.27
2018-03-14T16:11:05.497Z,20.70
2018-03-14T16:13:44.026Z,28.70
2018-03-14T16:16:15.586Z,18.03
2018-03-14T16:18:47.178Z,17.30
2018-03-14T16:21:18.635Z,13.10
2018-03-14T16:23:53.904Z,21.90
2018-03-14T16:26:34.173Z,32.53
2018-03-14T16:29:14.310Z,19.70
2018-03-14T16:31:52.322Z,19.33
2018-03-14T16:34:25.357Z,23.00
2018-03-14T16:36:57.487Z,24.00
2018-03-14T16:39:28.887Z,25.17
2018-03-14T16:42:00.399Z,18.07
2018-03-14T16:44:38.526Z,25.53
2018-03-14T16:47:08.262Z,16.87
2018-03-14T16:49:39.715Z,22.60
2018-03-14T16:52:26.191Z,10.90
2018-03-14T16:55:15.191Z,16.30
2018-03-14T16:57:46.595Z,22.73
2018-03-14T17:00:23.152Z,11.13
2018-03-14T17:02:59.744Z,14.73
2018-03-14T17:05:31.858Z,17.33
2018-03-14T17:08:13.686Z,17.10
2018-03-14T17:10:47.542Z,14.60
2018-03-14T17:13:30.471Z,29.60
2018-03-14T17:16:10.376Z,19.60
2018-03-14T17:18:47.629Z,14.70
2018-03-14T17:21:23.275Z,14.10
2018-03-14T17:24:08.901Z,12.33
2018-03-14T17:26:39.564Z,20.10
2018-03-14T17:29:15.495Z,19.03
2018-03-14T17:31:59.162Z,10.43
2018-03-14T17:37:42.760Z,15.40
2018-03-14T17:40:14.860Z,12.67
2018-03-14T17:43:03.183Z,17.17
2018-03-14T17:45:47.894Z,18.80
2018-03-14T17:48:57.352Z,13.53
2018-03-14T17:51:30.636Z,13.53
2018-03-14T17:54:00.819Z,16.37
2018-03-14T17:56:39.525Z,14.97
2018-03-14T17:59:41.159Z,22.03
2018-03-14T18:02:25.503Z,27.27
2018-03-14T18:05:09.371Z,28.07
2018-03-14T18:07:45.704Z,12.80
2018-03-14T18:10:25.527Z,15.63
2018-03-14T18:13:21.256Z,18.67
2018-03-14T18:16:12.540Z,15.57
2018-03-14T18:18:46.952Z,12.43
2018-03-14T18:21:20.941Z,14.77
2018-03-14T18:24:02.858Z,22.70
2018-03-14T18:26:35.051Z,20.53
2018-03-14T18:29:14.454Z,24.67
2018-03-14T18:31:47.407Z,22.77
2018-03-14T18:34:20.416Z,22.03
2018-03-14T18:37:04.998Z,15.23
2018-03-14T18:39:53.690Z,13.30
2018-03-14T18:43:35.392Z,23.87
2018-03-14T18:46:11.180Z,37.57
2018-03-14T18:48:45.148Z,19.00
2018-03-14T18:51:16.608Z,26.80
2018-03-14T18:53:58.110Z,20.60
2018-03-14T18:56:32.778Z,21.23
2018-03-14T18:59:08.077Z,20.30
2018-03-14T19:01:39.990Z,13.07
2018-03-14T19:04:10.908Z,27.33
2018-03-14T19:06:42.029Z,21.50
2018-03-14T19:09:13.252Z,36.80
2018-03-14T19:11:44.224Z,27.80
2018-03-14T19:14:18.784Z,24.37
2018-03-14T19:16:50.238Z,29.13
2018-03-14T19:19:48.351Z,13.80
2018-03-14T19:22:23.574Z,45.90
2018-03-14T19:25:08.838Z,19.37
2018-03-14T19:27:41.357Z,15.20
2018-03-14T19:30:15.397Z,18.80
2018-03-14T19:35:29.809Z,26.03
2018-03-14T19:38:17.011Z,17.60
2018-03-14T19:40:50.031Z,23.23
2018-03-14T19:43:22.895Z,18.20
2018-03-14T19:46:03.933Z,24.53
2018-03-14T19:48:44.121Z,20.50
2018-03-14T19:51:40.116Z,17.47
2018-03-14T19:54:44.046Z,26.40
2018-03-14T20:04:00.472Z,24.70
2018-03-14T20:10:17.737Z,27.20
2018-03-14T20:12:59.861Z,23.50
2018-03-14T20:23:47.947Z,22.60
2018-03-14T20:26:37.563Z,18.40
2018-03-14T20:30:05.923Z,30.20
2018-03-14T20:33:04.411Z,24.73
2018-03-14T20:41:09.805Z,18.90
2018-03-14T20:44:05.381Z,47.40
2018-03-14T20:46:55.175Z,24.47
2018-03-14T20:50:08.510Z,23.10
2018-03-14T20:52:49.871Z,32.60
2018-03-14T20:55:35.533Z,25.77
2018-03-14T21:01:17.603Z,25.20
2018-03-14T21:04:04.205Z,29.80
2018-03-14T21:06:48.481Z,34.23
2018-03-14T21:09:26.013Z,38.50
2018-03-14T21:15:07.319Z,33.43
2018-03-14T21:17:38.231Z,31.50
2018-03-14T21:20:08.634Z,29.90
2018-03-14T21:22:41.322Z,39.17
2018-03-14T21:25:13.249Z,32.83
2018-03-14T21:27:51.140Z,34.83
2018-03-14T21:30:25.286Z,29.37
2018-03-14T21:32:57.388Z,37.63
2018-03-14T21:35:28.727Z,34.63
2018-03-14T21:37:59.770Z,43.60
2018-03-14T21:40:31.171Z,26.37
2018-03-14T21:43:02.466Z,37.27
2018-03-14T21:45:54.081Z,40.60
2018-03-14T21:48:52.594Z,38.30
2018-03-14T21:51:37.863Z,43.50
2018-03-14T21:54:17.890Z,36.93
2018-03-14T21:57:01.514Z,35.43
2018-03-14T21:59:37.611Z,34.47
2018-03-14T22:02:24.662Z,35.80
2018-03-14T22:05:12.109Z,42.37
2018-03-14T22:07:47.599Z,37.53
2018-03-14T22:10:19.464Z,35.63
2018-03-14T22:12:56.966Z,33.10
2018-03-14T22:15:29.760Z,41.20
2018-03-14T22:18:03.404Z,42.97
2018-03-14T22:20:36.461Z,44.60
2018-03-14T22:23:09.086Z,61.03
2018-03-14T22:25:43.700Z,48.97
2018-03-14T22:28:44.496Z,46.80
2018-03-14T22:31:36.309Z,44.40
2018-03-14T22:34:18.320Z,50.47
2018-03-14T22:36:57.089Z,42.93
2018-03-14T22:39:35.230Z,48.13
2018-03-14T22:42:29.280Z,41.97
2018-03-14T22:45:17.457Z,47.47
2018-03-14T22:48:01.821Z,54.17
2018-03-14T22:50:38.650Z,55.40
2018-03-14T22:53:26.648Z,39.93
2018-03-14T22:56:07.838Z,50.70
2018-03-14T22:58:39.338Z,48.67
2018-03-14T23:01:14.912Z,49.80
2018-03-14T23:03:53.208Z,52.40
2018-03-14T23:09:41.970Z,44.03
2018-03-14T23:12:30.810Z,50.03
2018-03-14T23:15:10.734Z,48.77
2018-03-14T23:17:56.535Z,46.73
2018-03-14T23:20:28.828Z,53.40
2018-03-14T23:23:14.807Z,45.17
2018-03-14T23:25:48.671Z,48.50
2018-03-14T23:28:28.907Z,43.97
2018-03-14T23:31:01.408Z,44.23
2018-03-14T23:33:45.749Z,48.83
2018-03-14T23:38:58.942Z,49.17
2018-03-14T23:41:31.454Z,53.83
2018-03-14T23:44:11.344Z,47.87
2018-03-14T23:46:44.399Z,41.13
2018-03-14T23:49:18.931Z,50.60
2018-03-14T23:51:53.549Z,44.60
2018-03-14T23:54:25.644Z,43.43
2018-03-14T23:56:56.783Z,49.83
2018-03-14T23:59:29.096Z,49.17
